createdAt,value
2022-09-28T00:02:25.645Z,80.49
2022-09-28T00:04:56.498Z,80.28
2022-09-28T00:07:25.617Z,80.39
2022-09-28T00:09:54.702Z,80.33
2022-09-28T00:12:24.286Z,80.73
2022-09-28T00:14:54.031Z,80.84
2022-09-28T00:17:26.185Z,80.42
2022-09-28T00:19:58.400Z,80.54
2022-09-28T00:22:27.503Z,80.94
2022-09-28T00:24:56.784Z,80.76
2022-09-28T00:27:25.977Z,80.56
2022-09-28T00:29:55.924Z,80.63
2022-09-28T00:32:25.118Z,80.75
2022-09-28T00:34:55.997Z,80.87
2022-09-28T00:37:25.071Z,80.72
2022-09-28T00:39:54.989Z,81.00
2022-09-28T00:42:26.179Z,80.93
2022-09-28T00:44:56.116Z,81.07
2022-09-28T00:47:42.986Z,80.98
2022-09-28T00:50:23.657Z,81.41
2022-09-28T00:52:57.700Z,81.33
2022-09-28T00:55:35.716Z,81.06
2022-09-28T00:58:08.718Z,81.50
2022-09-28T01:00:40.626Z,81.18
2022-09-28T01:03:10.244Z,81.16
2022-09-28T01:05:41.897Z,81.39
2022-09-28T01:08:13.371Z,81.37
2022-09-28T01:10:44.068Z,81.58
2022-09-28T01:13:15.790Z,81.69
2022-09-28T01:15:54.800Z,81.76
2022-09-28T01:18:30.275Z,81.49
2022-09-28T01:21:10.680Z,81.48
2022-09-28T01:24:01.078Z,81.77
2022-09-28T01:26:59.982Z,82.14
2022-09-28T01:29:49.300Z,81.92
2022-09-28T01:32:30.382Z,81.80
2022-09-28T01:35:06.609Z,81.70
2022-09-28T01:37:42.680Z,81.38
2022-09-28T01:40:13.382Z,81.76
2022-09-28T01:42:46.011Z,81.58
2022-09-28T01:45:23.171Z,81.45
2022-09-28T01:47:58.299Z,81.70
2022-09-28T01:50:31.454Z,81.60
2022-09-28T01:53:08.506Z,81.49
2022-09-28T01:55:44.133Z,82.01
2022-09-28T01:58:19.816Z,81.73
2022-09-28T02:00:57.147Z,81.92
2022-09-28T02:03:33.051Z,81.94
2022-09-28T02:06:10.391Z,81.63
2022-09-28T02:08:45.457Z,82.12
2022-09-28T02:11:17.399Z,81.92
2022-09-28T02:13:51.500Z,82.16
2022-09-28T02:16:27.436Z,82.04
2022-09-28T02:18:57.100Z,81.95
2022-09-28T02:21:32.859Z,81.77
2022-09-28T02:24:08.000Z,81.96
2022-09-28T02:26:42.728Z,81.77
2022-09-28T02:29:12.834Z,81.74
2022-09-28T02:31:43.429Z,81.52
2022-09-28T02:34:12.716Z,81.85
2022-09-28T02:36:42.090Z,81.53
2022-09-28T02:39:16.783Z,82.02
2022-09-28T02:41:59.991Z,81.82
2022-09-28T02:44:42.222Z,82.06
2022-09-28T02:47:26.157Z,82.21
2022-09-28T02:50:04.351Z,82.16
2022-09-28T02:52:59.684Z,82.12
2022-09-28T02:55:44.411Z,82.29
2022-09-28T02:58:27.723Z,82.22
2022-09-28T03:01:04.402Z,82.45
2022-09-28T03:03:43.613Z,82.43
2022-09-28T03:06:22.165Z,82.33
2022-09-28T03:08:56.744Z,82.73
2022-09-28T03:11:34.498Z,82.53
2022-09-28T03:14:06.271Z,82.61
2022-09-28T03:16:45.331Z,82.74
2022-09-28T03:19:18.313Z,82.61
2022-09-28T03:21:47.473Z,82.65
2022-09-28T03:24:17.535Z,83.09
2022-09-28T03:26:46.630Z,83.07
2022-09-28T03:29:16.358Z,82.85
2022-09-28T03:31:49.187Z,83.21
2022-09-28T03:34:19.782Z,83.14
2022-09-28T03:36:49.335Z,83.67
2022-09-28T03:39:18.618Z,83.24
2022-09-28T03:41:47.828Z,83.07
2022-09-28T03:44:18.768Z,83.65
2022-09-28T03:46:48.692Z,83.49
2022-09-28T03:49:19.449Z,83.56
2022-09-28T03:51:49.505Z,83.22
2022-09-28T03:54:19.088Z,83.14
2022-09-28T03:56:48.245Z,83.34
2022-09-28T03:59:19.356Z,83.40
2022-09-28T04:01:51.476Z,83.47
2022-09-28T04:04:23.683Z,83.42
2022-09-28T04:06:52.826Z,83.45
2022-09-28T04:09:22.333Z,83.60
2022-09-28T04:12:03.277Z,83.23
2022-09-28T04:14:33.845Z,83.57
2022-09-28T04:17:03.305Z,83.14
2022-09-28T04:19:35.388Z,83.30
2022-09-28T04:22:23.375Z,83.51
2022-09-28T04:24:52.520Z,83.28
2022-09-28T04:27:39.385Z,83.74
2022-09-28T04:30:10.036Z,83.78
2022-09-28T04:32:39.670Z,83.89
2022-09-28T04:35:12.996Z,83.67
2022-09-28T04:37:42.548Z,83.39
2022-09-28T04:40:12.142Z,83.18
2022-09-28T04:42:41.336Z,83.52
2022-09-28T04:45:11.890Z,83.58
2022-09-28T04:47:45.133Z,83.52
2022-09-28T04:50:41.993Z,83.32
2022-09-28T04:53:19.828Z,83.53
2022-09-28T04:55:58.454Z,83.53
2022-09-28T04:58:27.861Z,83.82
2022-09-28T05:01:02.305Z,83.75
2022-09-28T05:03:50.166Z,83.61
2022-09-28T05:06:30.950Z,83.93
2022-09-28T05:09:07.361Z,84.22
2022-09-28T05:11:36.667Z,84.19
2022-09-28T05:14:09.364Z,84.02
2022-09-28T05:16:38.705Z,84.15
2022-09-28T05:19:26.524Z,83.97
2022-09-28T05:22:04.415Z,83.79
2022-09-28T05:24:38.640Z,84.28
2022-09-28T05:27:08.061Z,84.19
2022-09-28T05:29:37.281Z,83.68
2022-09-28T05:32:24.904Z,84.01
2022-09-28T05:35:08.181Z,83.79
2022-09-28T05:37:45.194Z,83.67
2022-09-28T05:40:15.030Z,84.00
2022-09-28T05:42:44.388Z,84.07
2022-09-28T05:45:15.146Z,84.08
2022-09-28T05:47:47.262Z,83.85
2022-09-28T05:50:20.291Z,83.58
2022-09-28T05:52:59.809Z,83.33
2022-09-28T05:55:29.829Z,83.42
2022-09-28T05:58:03.628Z,83.93
2022-09-28T06:00:34.310Z,83.98
2022-09-28T06:03:09.211Z,83.29
2022-09-28T06:05:39.977Z,83.51
2022-09-28T06:08:11.675Z,83.73
2022-09-28T06:10:45.424Z,84.06
2022-09-28T06:13:15.788Z,84.15
2022-09-28T06:15:46.349Z,83.72
2022-09-28T06:18:16.610Z,84.03
2022-09-28T06:21:16.477Z,83.85
2022-09-28T06:23:49.708Z,83.66
2022-09-28T06:26:20.577Z,83.90
2022-09-28T06:28:49.896Z,83.82
2022-09-28T06:31:23.720Z,83.91
2022-09-28T06:33:53.817Z,83.39
2022-09-28T06:36:23.356Z,83.55
2022-09-28T06:38:53.958Z,84.03
2022-09-28T06:41:23.310Z,83.88
2022-09-28T06:43:52.456Z,84.05
2022-09-28T06:46:40.242Z,83.81
2022-09-28T06:49:32.449Z,84.00
2022-09-28T06:52:20.205Z,84.10
2022-09-28T06:55:26.425Z,83.86
2022-09-28T06:58:00.184Z,84.16
2022-09-28T07:00:31.191Z,84.09
2022-09-28T07:03:00.646Z,84.33
2022-09-28T07:05:44.235Z,84.04
2022-09-28T07:08:39.931Z,84.25
2022-09-28T07:11:48.820Z,84.45
2022-09-28T07:14:45.846Z,84.60
2022-09-28T07:17:16.536Z,84.53
2022-09-28T07:19:46.102Z,84.34
2022-09-28T07:22:18.880Z,84.34
2022-09-28T07:24:50.765Z,84.47
2022-09-28T07:27:45.812Z,84.48
2022-09-28T07:30:54.412Z,84.69
2022-09-28T07:34:02.731Z,84.75
2022-09-28T07:36:39.219Z,84.70
2022-09-28T07:39:09.103Z,84.73
2022-09-28T07:41:39.757Z,84.71
2022-09-28T07:44:12.447Z,84.80
2022-09-28T07:46:44.622Z,84.46
2022-09-28T07:49:23.999Z,84.85
2022-09-28T07:52:20.594Z,84.60
2022-09-28T07:55:09.276Z,84.65
2022-09-28T07:58:04.765Z,84.62
2022-09-28T08:01:01.053Z,84.68
2022-09-28T08:03:31.743Z,84.91
2022-09-28T08:06:01.654Z,84.79
2022-09-28T08:08:32.273Z,84.90
2022-09-28T08:11:02.749Z,84.18
2022-09-28T08:13:49.369Z,84.33
2022-09-28T08:16:48.537Z,84.81
2022-09-28T08:19:56.006Z,85.10
2022-09-28T08:22:25.160Z,84.54
2022-09-28T08:24:58.087Z,84.83
2022-09-28T08:27:27.177Z,84.79
2022-09-28T08:29:56.423Z,85.16
2022-09-28T08:33:02.278Z,85.44
2022-09-28T08:35:46.870Z,85.09
2022-09-28T08:38:48.104Z,85.52
2022-09-28T08:41:50.923Z,85.00
2022-09-28T08:44:45.018Z,85.22
2022-09-28T08:47:47.893Z,85.66
2022-09-28T08:50:33.282Z,85.36
2022-09-28T08:53:19.414Z,85.29
2022-09-28T08:56:05.052Z,85.44
2022-09-28T08:58:38.946Z,85.67
2022-09-28T09:01:14.161Z,85.76
2022-09-28T09:03:45.724Z,85.32
2022-09-28T09:06:56.063Z,85.35
2022-09-28T09:09:43.720Z,85.35
2022-09-28T09:12:20.100Z,85.08
2022-09-28T09:15:08.648Z,85.21
2022-09-28T09:17:49.266Z,85.50
2022-09-28T09:20:51.902Z,84.91
2022-09-28T09:23:39.262Z,84.79
2022-09-28T09:26:22.413Z,84.91
2022-09-28T09:29:22.985Z,84.97
2022-09-28T09:32:43.510Z,85.16
2022-09-28T09:35:31.487Z,85.07
2022-09-28T09:38:41.371Z,85.33
2022-09-28T09:41:45.556Z,85.39
2022-09-28T09:44:55.375Z,85.59
2022-09-28T09:47:45.333Z,85.64
2022-09-28T09:50:29.954Z,85.40
2022-09-28T09:53:05.624Z,85.35
2022-09-28T09:55:43.421Z,85.39
2022-09-28T09:58:53.629Z,85.05
2022-09-28T10:01:35.845Z,85.17
2022-09-28T10:04:27.298Z,84.81
2022-09-28T10:07:04.788Z,84.65
2022-09-28T10:09:40.737Z,84.71
2022-09-28T10:12:37.329Z,84.94
2022-09-28T10:15:08.780Z,84.58
2022-09-28T10:17:50.444Z,84.61
2022-09-28T10:20:43.518Z,84.47
2022-09-28T10:23:25.897Z,84.42
2022-09-28T10:26:00.687Z,84.85
2022-09-28T10:28:51.876Z,84.62
2022-09-28T10:31:42.573Z,83.89
2022-09-28T10:34:31.517Z,84.45
2022-09-28T10:37:11.615Z,84.53
2022-09-28T10:40:01.103Z,84.33
2022-09-28T10:42:36.231Z,83.87
2022-09-28T10:45:27.418Z,83.79
2022-09-28T10:48:03.611Z,83.76
2022-09-28T10:50:35.633Z,83.52
2022-09-28T10:53:19.239Z,83.19
2022-09-28T10:56:22.839Z,83.53
2022-09-28T10:59:03.622Z,83.39
2022-09-28T11:01:48.229Z,83.27
2022-09-28T11:04:29.030Z,83.13
2022-09-28T11:07:01.113Z,82.27
2022-09-28T11:09:33.231Z,82.36
2022-09-28T11:12:15.387Z,82.27
2022-09-28T11:14:48.831Z,81.87
2022-09-28T11:17:33.848Z,82.11
2022-09-28T11:20:26.800Z,81.72
2022-09-28T11:22:59.020Z,81.79
2022-09-28T11:25:33.459Z,81.74
2022-09-28T11:28:23.767Z,81.18
2022-09-28T11:30:56.142Z,81.04
2022-09-28T11:33:46.947Z,80.31
2022-09-28T11:36:54.991Z,80.12
2022-09-28T11:40:11.699Z,78.83
2022-09-28T11:42:58.621Z,79.01
2022-09-28T11:45:42.404Z,78.21
2022-09-28T11:48:19.047Z,76.75
2022-09-28T11:50:55.252Z,77.61
2022-09-28T11:53:30.386Z,77.00
2022-09-28T11:56:14.707Z,76.51
2022-09-28T11:58:48.184Z,76.22
2022-09-28T12:01:26.317Z,75.29
2022-09-28T12:04:35.188Z,73.44
2022-09-28T12:07:17.577Z,72.91
2022-09-28T12:09:58.468Z,73.20
2022-09-28T12:12:35.636Z,72.59
2022-09-28T12:15:19.126Z,70.77
2022-09-28T12:20:49.133Z,70.69
2022-09-28T12:23:39.644Z,71.91
2022-09-28T12:26:23.779Z,71.84
2022-09-28T12:28:59.085Z,71.67
2022-09-28T12:31:36.316Z,70.80
2022-09-28T12:34:06.326Z,70.19
2022-09-28T12:37:08.014Z,69.87
2022-09-28T12:40:02.175Z,68.00
2022-09-28T12:42:53.007Z,66.41
2022-09-28T12:46:09.895Z,68.57
2022-09-28T12:50:07.274Z,68.86
2022-09-28T12:52:18.986Z,69.20
2022-09-28T12:55:24.925Z,69.46
2022-09-28T12:58:04.374Z,69.71
2022-09-28T13:00:42.331Z,69.51
2022-09-28T13:03:41.202Z,69.67
2022-09-28T13:06:37.933Z,69.71
2022-09-28T13:09:23.888Z,69.76
2022-09-28T13:12:31.820Z,69.21
2022-09-28T13:15:34.353Z,69.70
2022-09-28T13:18:12.137Z,69.69
2022-09-28T13:20:53.265Z,69.88
2022-09-28T13:23:25.390Z,69.82
2022-09-28T13:26:10.428Z,69.24
2022-09-28T13:28:43.693Z,69.26
2022-09-28T13:31:19.086Z,69.20
2022-09-28T13:33:50.397Z,69.08
2022-09-28T13:36:42.497Z,68.90
2022-09-28T13:39:37.544Z,68.68
2022-09-28T13:42:09.861Z,69.11
2022-09-28T13:45:03.131Z,68.63
2022-09-28T13:47:57.623Z,68.98
2022-09-28T13:50:39.084Z,68.95
2022-09-28T13:53:20.246Z,68.76
2022-09-28T13:55:58.483Z,68.79
2022-09-28T13:58:32.839Z,69.09
2022-09-28T14:01:08.657Z,68.74
2022-09-28T14:03:55.786Z,68.74
2022-09-28T14:06:27.643Z,68.97
2022-09-28T14:09:25.078Z,68.74
2022-09-28T14:12:00.014Z,69.03
2022-09-28T14:14:51.078Z,68.70
2022-09-28T14:18:03.136Z,68.86
2022-09-28T14:20:36.162Z,69.04
2022-09-28T14:23:57.584Z,68.94
2022-09-28T14:26:54.434Z,68.97
2022-09-28T14:29:29.376Z,68.57
2022-09-28T14:32:04.742Z,68.68
2022-09-28T14:34:37.806Z,68.76
2022-09-28T14:37:40.257Z,68.43
2022-09-28T14:40:37.519Z,68.92
2022-09-28T14:43:36.253Z,68.61
2022-09-28T14:46:37.462Z,68.61
2022-09-28T14:52:46.649Z,68.83
2022-09-28T14:55:27.809Z,68.73
2022-09-28T15:59:27.283Z,69.33
2022-09-28T16:06:16.474Z,69.85
2022-09-28T16:08:48.889Z,69.68
2022-09-28T16:11:23.931Z,70.13
2022-09-28T16:14:01.794Z,69.99
2022-09-28T16:16:36.462Z,70.42
2022-09-28T16:19:07.955Z,70.19
2022-09-28T16:21:46.955Z,70.67
2022-09-28T16:24:23.625Z,70.50
2022-09-28T16:26:59.220Z,70.53
2022-09-28T16:29:39.154Z,70.68
2022-09-28T16:32:41.788Z,70.59
2022-09-28T16:35:21.131Z,71.10
2022-09-28T16:37:57.849Z,71.54
2022-09-28T16:40:28.045Z,71.63
2022-09-28T16:43:03.161Z,72.01
2022-09-28T16:45:35.187Z,71.94
2022-09-28T16:48:06.475Z,71.94
2022-09-28T16:50:35.970Z,72.34
2022-09-28T16:53:31.541Z,72.25
2022-09-28T16:56:01.981Z,72.51
2022-09-28T16:58:32.041Z,72.75
2022-09-28T17:01:02.015Z,72.88
2022-09-28T17:03:32.840Z,72.75
2022-09-28T17:06:03.730Z,73.19
2022-09-28T17:08:33.766Z,72.89
2022-09-28T17:11:24.015Z,72.99
2022-09-28T17:13:56.711Z,73.15
2022-09-28T17:19:24.404Z,72.81
2022-09-28T17:21:54.264Z,73.00
2022-09-28T17:24:23.725Z,73.14
2022-09-28T17:26:54.807Z,72.88
2022-09-28T17:29:24.236Z,73.01
2022-09-28T17:31:54.440Z,73.33
2022-09-28T17:34:24.741Z,72.82
2022-09-28T17:36:54.790Z,73.25
2022-09-28T17:39:25.128Z,73.44
2022-09-28T17:41:54.544Z,73.69
2022-09-28T17:44:23.749Z,73.92
2022-09-28T17:46:53.944Z,73.81
2022-09-28T17:49:24.959Z,74.11
2022-09-28T17:51:54.243Z,73.94
2022-09-28T17:54:23.510Z,74.38
2022-09-28T17:56:53.242Z,74.48
2022-09-28T17:59:22.420Z,74.57
2022-09-28T18:01:51.685Z,74.75
2022-09-28T18:04:47.207Z,74.68
2022-09-28T18:07:11.933Z,75.02
2022-09-28T18:09:41.251Z,75.10
2022-09-28T18:12:10.368Z,74.95
2022-09-28T18:14:40.109Z,75.12
2022-09-28T18:17:09.457Z,75.11
2022-09-28T18:19:38.557Z,74.97
2022-09-28T18:22:07.643Z,75.22
2022-09-28T18:24:38.319Z,75.37
2022-09-28T18:27:07.425Z,75.34
2022-09-28T18:29:36.573Z,75.15
2022-09-28T18:32:06.211Z,75.39
2022-09-28T18:34:38.042Z,75.47
2022-09-28T18:37:07.583Z,75.36
2022-09-28T18:39:38.630Z,75.41
2022-09-28T18:42:08.133Z,75.64
2022-09-28T18:44:37.747Z,75.82
2022-09-28T18:47:07.182Z,75.75
2022-09-28T18:49:37.992Z,75.72
2022-09-28T18:52:08.685Z,75.78
2022-09-28T18:54:40.504Z,76.08
2022-09-28T18:57:10.164Z,76.17
2022-09-28T18:59:39.640Z,75.70
2022-09-28T19:02:11.578Z,75.84
2022-09-28T19:04:41.481Z,75.97
2022-09-28T19:07:10.832Z,75.84
2022-09-28T19:09:44.035Z,76.06
2022-09-28T19:12:14.018Z,75.52
2022-09-28T19:14:43.299Z,75.80
2022-09-28T19:17:12.947Z,75.85
2022-09-28T19:19:42.731Z,76.51
2022-09-28T19:22:12.978Z,76.95
2022-09-28T19:24:43.736Z,76.90
2022-09-28T19:27:13.074Z,77.25
2022-09-28T19:29:42.274Z,77.37
2022-09-28T19:32:12.659Z,77.48
2022-09-28T19:34:42.124Z,77.57
2022-09-28T19:37:11.316Z,77.39
2022-09-28T19:39:42.022Z,77.59
2022-09-28T19:42:11.457Z,77.70
2022-09-28T19:44:41.665Z,77.89
2022-09-28T19:47:13.023Z,77.75
2022-09-28T19:49:43.089Z,77.77
2022-09-28T19:52:16.925Z,77.75
2022-09-28T19:54:56.681Z,77.70
2022-09-28T19:57:27.845Z,77.85
2022-09-28T20:00:05.683Z,77.68
2022-09-28T20:02:36.125Z,77.72
2022-09-28T20:05:05.702Z,78.00
2022-09-28T20:07:36.167Z,78.25
2022-09-28T20:10:07.871Z,77.84
2022-09-28T20:12:37.153Z,77.89
2022-09-28T20:15:10.645Z,77.78
2022-09-28T20:17:39.859Z,78.30
2022-09-28T20:20:09.979Z,78.13
2022-09-28T20:22:40.140Z,78.45
2022-09-28T20:25:11.126Z,78.37
2022-09-28T20:27:40.554Z,78.18
2022-09-28T20:30:11.911Z,78.28
2022-09-28T20:32:41.720Z,78.25
2022-09-28T20:35:11.367Z,78.24
2022-09-28T20:37:40.508Z,78.14
2022-09-28T20:40:12.065Z,78.31
2022-09-28T20:42:42.483Z,78.16
2022-09-28T20:45:12.178Z,78.27
2022-09-28T20:47:41.575Z,78.35
2022-09-28T20:50:11.479Z,78.32
2022-09-28T20:52:40.893Z,78.27
2022-09-28T20:55:11.948Z,77.90
2022-09-28T20:57:41.344Z,78.02
2022-09-28T21:00:12.016Z,78.11
2022-09-28T21:02:41.442Z,78.24
2022-09-28T21:05:11.110Z,78.56
2022-09-28T21:07:40.374Z,78.15
2022-09-28T21:10:11.907Z,78.01
2022-09-28T21:12:41.978Z,78.30
2022-09-28T21:15:12.058Z,78.23
2022-09-28T21:17:41.337Z,78.28
2022-09-28T21:20:11.290Z,78.62
2022-09-28T21:22:40.777Z,78.71
2022-09-28T21:25:11.821Z,78.39
2022-09-28T21:27:41.526Z,78.59
2022-09-28T21:30:11.757Z,79.01
2022-09-28T21:32:41.184Z,79.18
2022-09-28T21:35:11.179Z,78.97
2022-09-28T21:37:40.628Z,79.15
2022-09-28T21:40:11.972Z,79.03
2022-09-28T21:42:41.530Z,78.95
2022-09-28T21:45:11.266Z,78.74
2022-09-28T21:47:43.573Z,78.86
2022-09-28T21:50:15.217Z,78.91
2022-09-28T21:52:44.366Z,78.78
2022-09-28T21:55:15.215Z,78.59
2022-09-28T21:57:46.372Z,78.75
2022-09-28T22:00:16.431Z,78.70
2022-09-28T22:02:46.133Z,78.74
2022-09-28T22:05:15.856Z,78.76
2022-09-28T22:07:45.215Z,78.68
2022-09-28T22:10:16.607Z,78.69
2022-09-28T22:12:45.930Z,78.60
2022-09-28T22:15:15.433Z,78.73
2022-09-28T22:17:44.719Z,79.00
2022-09-28T22:20:13.885Z,79.08
2022-09-28T22:22:43.282Z,79.21
2022-09-28T22:25:12.513Z,79.52
2022-09-28T22:27:43.252Z,79.30
2022-09-28T22:30:13.662Z,79.30
2022-09-28T22:32:42.574Z,79.15
2022-09-28T22:35:11.919Z,79.26
2022-09-28T22:37:41.319Z,79.27
2022-09-28T22:40:12.706Z,79.24
2022-09-28T22:42:43.478Z,79.24
2022-09-28T22:45:13.006Z,79.20
2022-09-28T22:47:42.704Z,79.36
2022-09-28T22:50:12.083Z,79.09
2022-09-28T22:52:41.515Z,79.09
2022-09-28T22:55:12.828Z,79.14
2022-09-28T22:57:43.597Z,78.93
2022-09-28T23:00:13.649Z,79.14
2022-09-28T23:02:42.846Z,79.11
2022-09-28T23:05:12.227Z,78.75
2022-09-28T23:07:41.411Z,79.06
2022-09-28T23:10:11.222Z,79.12
2022-09-28T23:12:42.326Z,79.30
2022-09-28T23:15:13.693Z,78.69
2022-09-28T23:17:43.022Z,79.12
2022-09-28T23:20:12.227Z,79.17
2022-09-28T23:22:41.396Z,79.18
2022-09-28T23:25:10.963Z,79.28
2022-09-28T23:27:40.263Z,79.37
2022-09-28T23:30:12.167Z,79.49
2022-09-28T23:32:41.605Z,79.21
2022-09-28T23:35:11.077Z,79.38
2022-09-28T23:37:40.323Z,79.46
2022-09-28T23:40:10.271Z,79.21
2022-09-28T23:42:39.393Z,79.17
2022-09-28T23:45:11.160Z,79.33
2022-09-28T23:47:40.548Z,79.05
2022-09-28T23:50:10.542Z,79.28
2022-09-28T23:52:39.683Z,79.22
2022-09-28T23:55:09.825Z,79.09
2022-09-28T23:57:43.877Z,79.08
